Toyomasa Maru — JJ3927 — position and weather

sailwx.info

Track history (hours):
 
Tides and Currents Weather Stations Pressure Air Temp Water Temp Dewpoint Dewpoint Depression Visibility Wind Speed Wind Dir Waves Ship Positions

Toyomasa Maru

Last reported at 2014-Sep-18 21:04 UTC. Time now 2014-Sep-23 12:20 UTC.
Position N 35°43' E 140°59'.

Length 101 m; draft 6.7 m.

Type: Tanker. MMSI: 431300401.

Date/timePositionNaut miles runAvg speedWind from/ knotsBaromVisibWave heightAir tempDewpointWater temp
2014-Sep-18 21:04N 35°43' E 140°59'711.9
2014-Sep-18 20:29N 35°37' E 140°56'2912.6
2014-Sep-18 18:12N 35°14' E 140°35'2313.7
2014-Sep-18 16:32N 34°59' E 140°14'2412.0
2014-Sep-18 14:31N 34°55' E 139°45'1010.5
2014-Sep-18 13:33N 35°05' E 139°44'1312.6
2014-Sep-18 12:33N 35°18' E 139°44'1110.7
2014-Sep-18 11:33N 35°28' E 139°49'9 9.5
2014-Sep-18 10:33N 35°29' E 140°01'0 0.1
2014-Sep-18 09:33N 35°29' E 140°01'0 0.0
2014-Sep-18 08:33N 35°29' E 140°01'0 0.0
2014-Sep-18 07:30N 35°29' E 140°01'0 0.0
2014-Sep-18 06:33N 35°29' E 140°01'0 0.0
2014-Sep-18 05:33N 35°29' E 140°01'0 0.0
2014-Sep-18 04:33N 35°29' E 140°01'0 0.0
2014-Sep-18 03:33N 35°29' E 140°01'4 4.2
2014-Sep-18 02:31N 35°30' E 139°56'0 0.0
2014-Sep-18 01:19N 35°30' E 139°56'0 0.0
2014-Sep-18 00:31N 35°30' E 139°56'0 0.0
2014-Sep-17 23:31N 35°30' E 139°56'0 0.0
2014-Sep-17 22:31N 35°30' E 139°56'0 0.0
2014-Sep-17 21:31N 35°30' E 139°56'0 0.0
2014-Sep-17 20:31N 35°30' E 139°56'0 0.0
2014-Sep-17 19:25N 35°30' E 139°56'0 0.0
2014-Sep-17 18:31N 35°30' E 139°56'0 0.0
2014-Sep-17 17:28N 35°30' E 139°56'0 0.0
2014-Sep-17 16:25N 35°30' E 139°56'0 0.0
2014-Sep-17 15:31N 35°30' E 139°56'0 0.1
2014-Sep-17 14:34N 35°30' E 139°56'7 6.7
2014-Sep-17 13:33N 35°32' E 140°03'0 0.0
2014-Sep-17 12:24N 35°32' E 140°03'0 0.0
2014-Sep-17 11:33N 35°32' E 140°03'0 0.0
2014-Sep-17 10:30N 35°32' E 140°03'0 0.0
2014-Sep-17 09:33N 35°32' E 140°03'0 0.0
2014-Sep-17 08:33N 35°32' E 140°03'0 0.3
2014-Sep-17 07:33N 35°32' E 140°03'1110.7
2014-Sep-17 06:33N 35°28' E 139°51'1111.5
2014-Sep-17 05:33N 35°17' E 139°45'1211.4
2014-Sep-17 04:31N 35°06' E 139°43'24110.3
2014-Sep-16 05:08N 34°07' E 134°59'1012.4
2014-Sep-16 04:18N 34°17' E 134°59'912.3
2014-Sep-16 03:33N 34°26' E 135°01'1010.4
2014-Sep-16 02:33N 34°37' E 135°01'  
Track history (hours):
 
Tides and Currents Weather Stations Pressure Air Temp Water Temp Dewpoint Dewpoint Depression Visibility Wind Speed Wind Dir Waves Ship Positions

Toyomasa Maru

Last reported at 2014-Sep-18 21:04 UTC. Time now 2014-Sep-23 12:20 UTC.
Position N 35°43' E 140°59'.

Length 101 m; draft 6.7 m.

Type: Tanker. MMSI: 431300401.

Date/timePositionNaut miles runAvg speedWind from/ knotsBaromVisibWave heightAir tempDewpointWater temp
2014-Sep-18 21:04N 35°43' E 140°59'711.9
2014-Sep-18 20:29N 35°37' E 140°56'2912.6
2014-Sep-18 18:12N 35°14' E 140°35'2313.7
2014-Sep-18 16:32N 34°59' E 140°14'2412.0
2014-Sep-18 14:31N 34°55' E 139°45'1010.5
2014-Sep-18 13:33N 35°05' E 139°44'1312.6
2014-Sep-18 12:33N 35°18' E 139°44'1110.7
2014-Sep-18 11:33N 35°28' E 139°49'9 9.5
2014-Sep-18 10:33N 35°29' E 140°01'0 0.1
2014-Sep-18 09:33N 35°29' E 140°01'0 0.0
2014-Sep-18 08:33N 35°29' E 140°01'0 0.0
2014-Sep-18 07:30N 35°29' E 140°01'0 0.0
2014-Sep-18 06:33N 35°29' E 140°01'0 0.0
2014-Sep-18 05:33N 35°29' E 140°01'0 0.0
2014-Sep-18 04:33N 35°29' E 140°01'0 0.0
2014-Sep-18 03:33N 35°29' E 140°01'4 4.2
2014-Sep-18 02:31N 35°30' E 139°56'0 0.0
2014-Sep-18 01:19N 35°30' E 139°56'0 0.0
2014-Sep-18 00:31N 35°30' E 139°56'0 0.0
2014-Sep-17 23:31N 35°30' E 139°56'0 0.0
2014-Sep-17 22:31N 35°30' E 139°56'0 0.0
2014-Sep-17 21:31N 35°30' E 139°56'0 0.0
2014-Sep-17 20:31N 35°30' E 139°56'0 0.0
2014-Sep-17 19:25N 35°30' E 139°56'0 0.0
2014-Sep-17 18:31N 35°30' E 139°56'0 0.0
2014-Sep-17 17:28N 35°30' E 139°56'0 0.0
2014-Sep-17 16:25N 35°30' E 139°56'0 0.0
2014-Sep-17 15:31N 35°30' E 139°56'0 0.1
2014-Sep-17 14:34N 35°30' E 139°56'7 6.7
2014-Sep-17 13:33N 35°32' E 140°03'0 0.0
2014-Sep-17 12:24N 35°32' E 140°03'0 0.0
2014-Sep-17 11:33N 35°32' E 140°03'0 0.0
2014-Sep-17 10:30N 35°32' E 140°03'0 0.0
2014-Sep-17 09:33N 35°32' E 140°03'0 0.0
2014-Sep-17 08:33N 35°32' E 140°03'0 0.3
2014-Sep-17 07:33N 35°32' E 140°03'1110.7
2014-Sep-17 06:33N 35°28' E 139°51'1111.5
2014-Sep-17 05:33N 35°17' E 139°45'1211.4
2014-Sep-17 04:31N 35°06' E 139°43'24110.3
2014-Sep-16 05:08N 34°07' E 134°59'1012.4
2014-Sep-16 04:18N 34°17' E 134°59'912.3
2014-Sep-16 03:33N 34°26' E 135°01'1010.4
2014-Sep-16 02:33N 34°37' E 135°01'  

Dump ship's entire track history